Time;durP1;ratioP1;P1;durP2;ratioP2;P2;SDS_P1;SDS_P2;PMS_P1;PMS_P2;Temp;Humidity;BMP_temperature;BMP_pressure;BME280_temperature;BME280_humidity;BME280_pressure;Samples;Min_cycle;Max_cycle;Signal;HPM_P1;HPM_P2
2023/01/11 00:01:41;;;;;;;9.03;4.67;;;11.30;94.80;;;;;;5045815;28;20301;-80
2023/01/11 00:04:10;;;;;;;13.83;5.67;;;11.30;95.30;;;;;;5043378;28;20210;-80
2023/01/11 00:06:39;;;;;;;12.25;5.93;;;11.40;95.60;;;;;;5046210;28;20449;-80
2023/01/11 00:09:07;;;;;;;14.37;5.30;;;11.40;95.80;;;;;;5044304;28;20195;-80
2023/01/11 00:11:36;;;;;;;9.23;5.10;;;11.50;96.20;;;;;;5043478;28;20199;-80
2023/01/11 00:14:04;;;;;;;10.47;4.50;;;11.50;96.10;;;;;;5051003;28;20198;-80
2023/01/11 00:16:33;;;;;;;11.97;4.40;;;11.50;96.00;;;;;;5050677;28;20260;-79
2023/01/11 00:19:01;;;;;;;11.27;4.97;;;11.60;96.10;;;;;;5050652;28;20946;-77
2023/01/11 00:21:31;;;;;;;11.33;4.30;;;11.60;96.40;;;;;;5044905;28;20456;-79
2023/01/11 00:23:59;;;;;;;14.40;4.33;;;11.60;96.40;;;;;;5043803;28;20195;-79
2023/01/11 00:26:28;;;;;;;10.50;4.20;;;11.60;96.40;;;;;;5045925;28;20618;-80
2023/01/11 00:28:56;;;;;;;11.73;4.47;;;11.70;96.40;;;;;;5044415;28;20219;-81
2023/01/11 00:31:24;;;;;;;10.53;4.03;;;11.60;96.60;;;;;;5046046;28;20199;-81
2023/01/11 00:33:53;;;;;;;9.27;4.20;;;11.70;96.50;;;;;;5043649;28;20248;-80
2023/01/11 00:36:22;;;;;;;12.50;3.80;;;11.70;96.40;;;;;;5043175;28;20203;-80
2023/01/11 00:38:52;;;;;;;7.67;3.03;;;11.70;96.30;;;;;;5043999;28;20195;-83
2023/01/11 00:49:42;;;;;;;12.33;3.50;;;11.90;96.20;;;;;;5044498;28;20195;-81
2023/01/11 00:52:11;;;;;;;14.47;4.33;;;11.90;96.20;;;;;;5044709;28;20837;-82
2023/01/11 00:54:41;;;;;;;15.03;4.10;;;11.90;96.10;;;;;;5047195;28;20258;-81
2023/01/11 00:57:10;;;;;;;14.00;4.27;;;11.90;96.10;;;;;;5050817;28;20199;-81
2023/01/11 00:59:39;;;;;;;9.80;3.80;;;12.00;96.10;;;;;;5046446;28;20199;-81
2023/01/11 01:02:08;;;;;;;11.60;4.10;;;12.00;96.10;;;;;;5049949;28;20221;-82
2023/01/11 01:04:37;;;;;;;14.03;3.43;;;12.00;96.00;;;;;;5050893;28;20207;-82
2023/01/11 01:07:06;;;;;;;13.37;3.83;;;12.00;96.00;;;;;;5048598;28;20207;-82
2023/01/11 01:09:34;;;;;;;13.13;3.93;;;12.00;96.00;;;;;;5042805;28;20199;-83
2023/01/11 01:12:05;;;;;;;10.93;3.27;;;12.00;96.00;;;;;;5013252;28;20563;-82
2023/01/11 01:14:33;;;;;;;8.33;3.17;;;12.10;96.00;;;;;;5050883;28;20200;-83
2023/01/11 01:17:03;;;;;;;13.83;3.93;;;12.10;95.90;;;;;;5050668;28;20679;-83
2023/01/11 01:19:33;;;;;;;12.33;4.10;;;12.10;96.10;;;;;;5050033;28;20203;-81
2023/01/11 01:22:02;;;;;;;9.60;3.23;;;12.10;96.10;;;;;;5046024;28;20195;-82
2023/01/11 01:24:31;;;;;;;9.87;5.47;;;12.10;96.10;;;;;;5049099;28;20254;-80
2023/01/11 01:26:59;;;;;;;11.10;4.93;;;12.10;95.70;;;;;;5045480;28;20204;-83
2023/01/11 01:29:29;;;;;;;7.77;4.83;;;12.10;95.40;;;;;;5048262;28;20206;-81
2023/01/11 01:31:57;;;;;;;8.10;4.40;;;12.00;95.00;;;;;;5052107;28;20202;-81
2023/01/11 01:34:26;;;;;;;9.70;4.83;;;11.90;94.20;;;;;;5047296;28;20222;-83
2023/01/11 01:36:54;;;;;;;7.10;4.30;;;11.90;94.30;;;;;;5045772;28;20203;-84
2023/01/11 01:39:23;;;;;;;6.23;4.03;;;11.90;94.20;;;;;;5049852;28;20199;-83
2023/01/11 01:41:51;;;;;;;8.10;4.87;;;11.80;94.20;;;;;;5045535;28;20252;-83
2023/01/11 01:44:54;;;;;;;8.23;4.60;;;11.80;94.10;;;;;;5050317;28;20243;-83
2023/01/11 01:47:27;;;;;;;7.27;4.47;;;11.70;94.10;;;;;;5060123;28;20759;-82
2023/01/11 01:49:57;;;;;;;8.03;4.70;;;11.70;94.00;;;;;;5065107;28;20233;-83
2023/01/11 01:52:28;;;;;;;6.40;4.60;;;11.70;94.00;;;;;;5065080;28;20563;-83
2023/01/11 01:54:59;;;;;;;6.87;4.53;;;11.70;94.10;;;;;;5066946;28;20194;-82
2023/01/11 01:57:31;;;;;;;12.30;4.77;;;11.70;94.10;;;;;;5064322;28;20209;-82
2023/01/11 02:00:04;;;;;;;14.37;4.37;;;11.60;94.30;;;;;;5064508;28;20202;-83
2023/01/11 02:02:33;;;;;;;15.23;3.97;;;11.60;95.00;;;;;;5066073;28;20210;-83
2023/01/11 02:05:01;;;;;;;13.37;4.77;;;11.60;95.30;;;;;;5065774;28;20644;-81
2023/01/11 02:07:35;;;;;;;17.50;4.80;;;11.70;96.10;;;;;;5066657;28;20548;-82
2023/01/11 02:10:07;;;;;;;13.67;3.83;;;11.70;96.20;;;;;;5068805;28;20243;-83
2023/01/11 02:12:39;;;;;;;17.17;4.13;;;11.70;96.10;;;;;;5069285;28;20190;-81
2023/01/11 02:15:13;;;;;;;14.17;4.00;;;11.70;96.10;;;;;;5066061;28;20201;-81
2023/01/11 02:17:42;;;;;;;12.87;4.70;;;11.80;96.20;;;;;;5066671;28;20541;-82
2023/01/11 02:20:40;;;;;;;14.53;4.30;;;11.80;96.30;;;;;;5069320;28;20276;-82
2023/01/11 02:23:41;;;;;;;9.60;4.07;;;11.80;96.40;;;;;;5038307;28;20623;-80
2023/01/11 02:26:54;;;;;;;17.63;4.60;;;11.80;96.40;;;;;;5061766;28;20193;-83
2023/01/11 02:29:32;;;;;;;17.80;4.53;;;11.80;96.40;;;;;;5067633;28;20251;-82
2023/01/11 02:32:10;;;;;;;12.40;3.93;;;11.90;96.60;;;;;;5061021;28;20618;-80
2023/01/11 02:34:46;;;;;;;16.40;4.43;;;11.90;96.50;;;;;;5060987;28;20628;-80
2023/01/11 02:37:34;;;;;;;13.37;4.60;;;11.90;96.60;;;;;;5066781;28;20224;-81
2023/01/11 02:40:11;;;;;;;14.90;4.87;;;11.90;96.50;;;;;;5062121;28;20190;-82
2023/01/11 02:45:44;;;;;;;12.07;4.13;;;12.00;96.70;;;;;;5061934;28;20233;-81
2023/01/11 02:48:21;;;;;;;11.07;4.77;;;12.00;96.90;;;;;;5063424;28;20213;-81
2023/01/11 02:50:57;;;;;;;16.83;4.60;;;12.00;97.00;;;;;;5062620;28;20190;-80
2023/01/11 02:53:29;;;;;;;14.57;4.37;;;12.00;97.00;;;;;;5061003;28;20194;-79
2023/01/11 02:56:07;;;;;;;17.00;5.17;;;12.00;97.10;;;;;;5067692;28;20682;-80
2023/01/11 02:58:40;;;;;;;16.50;5.00;;;12.00;97.10;;;;;;5068257;28;20655;-79
2023/01/11 03:01:10;;;;;;;16.17;5.80;;;12.00;97.30;;;;;;5071317;28;20404;-79
2023/01/11 03:03:41;;;;;;;17.63;5.80;;;12.00;97.60;;;;;;5068981;28;20685;-80
2023/01/11 03:06:16;;;;;;;13.50;4.60;;;12.00;97.50;;;;;;5071287;28;20199;-79
2023/01/11 03:09:13;;;;;;;14.80;4.80;;;12.00;97.50;;;;;;5071916;28;20206;-77
2023/01/11 03:14:53;;;;;;;19.90;5.20;;;12.00;97.70;;;;;;5065444;28;20198;-78
2023/01/11 03:17:36;;;;;;;14.93;4.53;;;12.00;97.70;;;;;;5072229;28;20206;-77
2023/01/11 03:20:11;;;;;;;18.97;5.43;;;12.00;97.60;;;;;;5068898;28;20202;-77
2023/01/11 03:22:50;;;;;;;21.80;5.80;;;12.00;97.80;;;;;;5062586;28;20223;-78
2023/01/11 03:25:23;;;;;;;10.77;4.73;;;12.00;97.60;;;;;;5073001;28;20264;-77
2023/01/11 03:27:57;;;;;;;11.40;4.63;;;12.00;97.70;;;;;;5071889;28;20592;-77
2023/01/11 03:30:34;;;;;;;11.37;4.90;;;12.10;97.70;;;;;;5062474;28;20196;-77
2023/01/11 03:33:09;;;;;;;13.03;5.17;;;12.10;97.70;;;;;;5064600;28;20198;-76
2023/01/11 03:35:41;;;;;;;14.53;5.90;;;12.10;97.70;;;;;;5067016;28;20727;-76
2023/01/11 03:38:16;;;;;;;13.37;6.03;;;12.10;97.80;;;;;;5065995;28;20263;-77
2023/01/11 03:40:50;;;;;;;10.73;5.07;;;12.10;98.00;;;;;;5061071;28;20251;-77
2023/01/11 03:43:21;;;;;;;12.07;5.13;;;12.10;98.00;;;;;;5057418;28;20228;-77
2023/01/11 03:45:54;;;;;;;13.90;5.50;;;12.10;98.10;;;;;;5062577;28;21825;-78
2023/01/11 03:48:29;;;;;;;13.53;4.77;;;12.10;98.00;;;;;;5058288;28;20190;-78
2023/01/11 03:50:59;;;;;;;15.13;5.27;;;12.10;98.20;;;;;;5059895;28;20256;-78
2023/01/11 03:53:33;;;;;;;16.43;6.50;;;12.10;98.20;;;;;;5060803;28;20294;-77
2023/01/11 03:56:05;;;;;;;12.27;4.97;;;12.10;98.20;;;;;;5067858;28;20200;-76
2023/01/11 03:58:34;;;;;;;13.40;5.07;;;12.20;98.20;;;;;;5060815;28;20198;-78
2023/01/11 04:01:03;;;;;;;19.30;5.03;;;12.20;98.30;;;;;;5062470;28;20199;-78
2023/01/11 04:03:34;;;;;;;18.53;6.20;;;12.20;98.60;;;;;;5064335;28;20276;-77
2023/01/11 04:06:03;;;;;;;14.53;5.97;;;12.10;98.70;;;;;;5070837;28;20597;-76
2023/01/11 04:08:32;;;;;;;19.17;6.20;;;12.10;99.00;;;;;;5069784;28;20255;-77
2023/01/11 04:11:00;;;;;;;14.90;5.77;;;12.10;99.00;;;;;;5062556;28;20659;-79
2023/01/11 04:13:29;;;;;;;13.43;5.47;;;12.10;99.20;;;;;;5070539;28;20275;-78
2023/01/11 04:16:01;;;;;;;18.07;6.57;;;12.10;99.20;;;;;;5057636;28;20559;-77
2023/01/11 04:18:30;;;;;;;13.40;6.53;;;12.10;99.10;;;;;;5066355;28;20440;-76
2023/01/11 04:20:59;;;;;;;13.03;5.43;;;12.10;99.50;;;;;;5068478;28;20229;-75
2023/01/11 04:23:28;;;;;;;12.53;5.00;;;12.00;99.70;;;;;;5060103;28;20190;-75
2023/01/11 04:25:56;;;;;;;17.13;5.17;;;12.10;99.60;;;;;;5065100;28;20251;-78
2023/01/11 04:28:24;;;;;;;14.83;5.07;;;12.10;99.70;;;;;;5068291;28;20191;-76
2023/01/11 04:30:54;;;;;;;10.93;4.57;;;12.10;99.60;;;;;;5067131;28;20704;-77
2023/01/11 04:33:22;;;;;;;13.23;5.17;;;12.10;99.60;;;;;;5068325;28;20614;-77
2023/01/11 04:35:51;;;;;;;11.10;4.90;;;12.10;99.70;;;;;;5069541;28;22023;-77
2023/01/11 04:38:23;;;;;;;18.03;5.20;;;12.00;99.90;;;;;;5070342;28;20202;-77
2023/01/11 04:42:17;;;;;;;17.60;4.80;;;12.10;99.90;;;;;;5067948;28;20199;-77
2023/01/11 04:43:40;;;;;;;15.13;5.60;;;12.10;99.90;;;;;;5062858;28;20463;-78
2023/01/11 04:46:10;;;;;;;11.17;4.70;;;12.10;99.90;;;;;;5054954;28;20280;-78
2023/01/11 04:48:39;;;;;;;13.53;5.27;;;12.10;99.90;;;;;;5068211;28;20553;-78
2023/01/11 04:51:09;;;;;;;10.93;4.33;;;12.10;99.90;;;;;;5068063;28;21682;-78
2023/01/11 04:53:39;;;;;;;12.53;4.50;;;12.10;99.90;;;;;;5062064;28;20209;-76
2023/01/11 04:56:08;;;;;;;13.27;4.30;;;12.10;99.90;;;;;;5068650;28;20525;-77
2023/01/11 04:58:36;;;;;;;7.80;4.37;;;12.10;99.90;;;;;;5070385;28;20557;-77
2023/01/11 05:01:13;;;;;;;10.43;4.33;;;12.00;99.90;;;;;;5061028;28;20595;-77
2023/01/11 05:03:42;;;;;;;9.73;5.20;;;12.10;99.90;;;;;;5061998;28;20199;-78
2023/01/11 05:06:11;;;;;;;8.47;4.03;;;12.10;99.90;;;;;;5068226;28;20606;-78
2023/01/11 05:08:46;;;;;;;9.83;3.80;;;12.10;99.90;;;;;;5064151;28;20202;-78
2023/01/11 05:11:19;;;;;;;15.57;4.37;;;12.10;99.90;;;;;;5059112;28;20191;-79
2023/01/11 05:13:48;;;;;;;9.80;4.40;;;12.10;99.90;;;;;;5063628;28;20720;-79
2023/01/11 05:16:22;;;;;;;10.93;4.77;;;12.10;99.90;;;;;;5068746;28;20282;-79
2023/01/11 05:18:53;;;;;;;10.87;4.53;;;12.10;99.90;;;;;;5065144;28;20199;-79
2023/01/11 05:21:23;;;;;;;12.63;4.83;;;12.20;99.90;;;;;;5065395;28;20559;-78
2023/01/11 05:23:54;;;;;;;8.97;4.73;;;12.20;99.90;;;;;;5071296;28;20199;-78
2023/01/11 05:26:28;;;;;;;10.93;5.13;;;12.20;99.90;;;;;;5065217;28;20208;-79
2023/01/11 05:29:09;;;;;;;10.63;5.00;;;12.20;99.90;;;;;;5070536;28;20566;-79
2023/01/11 05:31:44;;;;;;;9.40;4.93;;;12.20;99.90;;;;;;5068090;28;20200;-79
2023/01/11 05:34:14;;;;;;;11.47;5.03;;;12.20;99.90;;;;;;5065392;28;20200;-78
2023/01/11 05:36:48;;;;;;;10.53;5.03;;;12.20;99.90;;;;;;5070768;28;20713;-81
2023/01/11 05:40:04;;;;;;;12.90;5.57;;;12.20;99.90;;;;;;5065959;28;20191;-79
2023/01/11 05:43:06;;;;;;;12.97;6.17;;;12.20;99.90;;;;;;4929119;29;20210;-79
2023/01/11 05:45:59;;;;;;;16.30;5.93;;;12.20;99.90;;;;;;4923751;29;20263;-78
2023/01/11 05:48:33;;;;;;;10.27;5.07;;;12.20;99.90;;;;;;4928720;29;20684;-79
2023/01/11 05:51:02;;;;;;;10.33;5.50;;;12.20;99.90;;;;;;4938622;28;20206;-79
2023/01/11 05:53:31;;;;;;;9.33;5.47;;;12.20;99.90;;;;;;4977192;28;20205;-79
2023/01/11 05:55:59;;;;;;;12.30;5.60;;;12.20;99.90;;;;;;4983926;28;20212;-79
2023/01/11 05:58:32;;;;;;;15.67;5.87;;;12.20;99.90;;;;;;4989740;28;20343;-80
2023/01/11 06:01:00;;;;;;;14.17;6.77;;;12.20;99.90;;;;;;4985291;28;20247;-80
2023/01/11 06:03:30;;;;;;;12.87;6.33;;;12.20;99.90;;;;;;4986400;28;20248;-80
2023/01/11 06:06:01;;;;;;;13.60;6.00;;;12.20;99.90;;;;;;4985065;28;20307;-79
2023/01/11 06:08:29;;;;;;;16.70;5.93;;;12.20;99.90;;;;;;4989522;28;20744;-80
2023/01/11 06:11:01;;;;;;;17.00;6.57;;;12.20;99.90;;;;;;4984807;28;20229;-80
2023/01/11 06:13:29;;;;;;;19.33;6.03;;;12.20;99.90;;;;;;5016971;28;20225;-79
2023/01/11 06:16:02;;;;;;;13.60;6.00;;;12.20;99.90;;;;;;5062163;28;20270;-79
2023/01/11 06:18:35;;;;;;;11.10;5.40;;;12.20;99.90;;;;;;5065110;28;20574;-80
2023/01/11 06:21:05;;;;;;;13.53;6.10;;;12.20;99.90;;;;;;5062994;28;20206;-80
2023/01/11 06:23:36;;;;;;;15.13;6.67;;;12.20;99.90;;;;;;5062979;28;20226;-80
2023/01/11 06:26:06;;;;;;;15.93;6.93;;;12.20;99.90;;;;;;5068369;28;20210;-79
2023/01/11 06:28:34;;;;;;;14.17;5.70;;;12.20;99.90;;;;;;5071226;28;20194;-80
2023/01/11 06:31:05;;;;;;;16.80;6.10;;;12.20;99.90;;;;;;5074004;28;20202;-80
2023/01/11 06:33:34;;;;;;;18.47;6.00;;;12.20;99.90;;;;;;5070428;28;20190;-79
2023/01/11 06:36:17;;;;;;;11.77;5.20;;;12.20;99.90;;;;;;5066966;28;20202;-80
2023/01/11 06:38:45;;;;;;;16.90;5.73;;;12.20;99.90;;;;;;5063142;28;20214;-80
2023/01/11 06:41:14;;;;;;;16.07;5.20;;;12.20;99.90;;;;;;5075085;28;20255;-78
2023/01/11 06:43:43;;;;;;;11.87;4.93;;;12.20;99.90;;;;;;5069611;28;20201;-79
2023/01/11 06:46:14;;;;;;;15.87;5.83;;;12.20;99.90;;;;;;5059728;28;20349;-79
2023/01/11 06:48:43;;;;;;;11.77;4.93;;;12.20;99.90;;;;;;5066777;28;20217;-80
2023/01/11 06:51:15;;;;;;;10.37;4.77;;;12.30;99.90;;;;;;5071365;28;20277;-80
2023/01/11 06:53:45;;;;;;;11.70;5.07;;;12.30;99.90;;;;;;5068844;28;20229;-79
2023/01/11 06:56:16;;;;;;;11.70;4.80;;;12.30;99.90;;;;;;5069505;28;20564;-78
2023/01/11 06:58:44;;;;;;;12.97;4.97;;;12.30;99.90;;;;;;5073351;28;20206;-78
2023/01/11 07:01:18;;;;;;;10.67;4.60;;;12.20;99.90;;;;;;5067342;28;20190;-79
2023/01/11 07:03:46;;;;;;;10.20;4.30;;;12.30;99.90;;;;;;5075261;28;20532;-77
2023/01/11 07:06:14;;;;;;;9.80;4.17;;;12.30;99.90;;;;;;5072676;28;22123;-77
2023/01/11 07:08:43;;;;;;;11.07;3.97;;;12.30;99.90;;;;;;5070404;28;20201;-77
2023/01/11 07:11:11;;;;;;;5.70;3.27;;;12.20;99.90;;;;;;5075479;28;20198;-78
2023/01/11 07:13:40;;;;;;;8.40;3.80;;;12.20;99.90;;;;;;5071626;28;20678;-76
2023/01/11 07:16:08;;;;;;;8.57;3.50;;;12.30;99.90;;;;;;5074121;28;20606;-76
2023/01/11 07:18:38;;;;;;;6.83;3.70;;;12.30;99.90;;;;;;5075106;28;20285;-78
2023/01/11 07:21:06;;;;;;;7.90;3.43;;;12.30;99.90;;;;;;5074588;28;20199;-76
2023/01/11 07:23:35;;;;;;;9.70;3.37;;;12.40;99.90;;;;;;5075007;28;20220;-76
2023/01/11 07:26:03;;;;;;;9.40;2.50;;;12.30;99.90;;;;;;5074797;28;20223;-77
2023/01/11 07:28:31;;;;;;;6.63;2.30;;;12.30;99.90;;;;;;5058514;28;20250;-76
2023/01/11 07:30:59;;;;;;;5.47;2.93;;;12.30;99.90;;;;;;5060809;28;20202;-75
2023/01/11 07:33:28;;;;;;;6.07;2.90;;;12.30;99.90;;;;;;5074064;28;20202;-77
2023/01/11 07:35:59;;;;;;;6.33;2.67;;;12.30;99.90;;;;;;5067977;28;20187;-77
2023/01/11 07:38:28;;;;;;;10.32;3.65;;;12.30;99.90;;;;;;5072175;28;20502;-76
2023/01/11 07:40:56;;;;;;;8.50;2.67;;;12.30;99.90;;;;;;5073520;28;20583;-77
2023/01/11 07:43:24;;;;;;;10.70;3.40;;;12.40;99.90;;;;;;5073030;28;20656;-76
2023/01/11 07:45:52;;;;;;;9.07;3.10;;;12.30;99.90;;;;;;5070652;28;20261;-75
2023/01/11 07:48:25;;;;;;;7.00;3.70;;;12.40;99.90;;;;;;5070685;28;20281;-75
2023/01/11 07:50:54;;;;;;;9.07;3.50;;;12.40;99.90;;;;;;5062745;28;20209;-76
2023/01/11 07:53:25;;;;;;;11.47;3.37;;;12.40;99.90;;;;;;5063536;28;20260;-75
2023/01/11 07:55:55;;;;;;;6.83;3.00;;;12.40;99.90;;;;;;5064905;28;20673;-75
2023/01/11 07:58:23;;;;;;;4.90;2.63;;;12.40;99.90;;;;;;5065796;28;20203;-78
2023/01/11 08:00:52;;;;;;;9.63;2.77;;;12.40;99.90;;;;;;5070724;28;20662;-75
2023/01/11 08:03:20;;;;;;;7.20;3.00;;;12.40;99.90;;;;;;5060995;28;20682;-75
2023/01/11 08:05:51;;;;;;;5.23;2.23;;;12.40;99.90;;;;;;5069775;28;20218;-76
2023/01/11 08:08:19;;;;;;;8.93;2.17;;;12.30;99.90;;;;;;5070176;28;20689;-75
2023/01/11 08:14:38;;;;;;;6.00;2.33;;;12.30;99.90;;;;;;5062858;28;20632;-75
2023/01/11 08:16:26;;;;;;;2.23;1.40;;;12.20;99.30;;;;;;5060630;28;20211;-78
2023/01/11 08:18:54;;;;;;;2.43;0.90;;;12.10;98.50;;;;;;5057602;28;20946;-77
2023/01/11 08:21:22;;;;;;;2.00;1.20;;;12.00;98.20;;;;;;5070440;28;20670;-74
2023/01/11 08:24:03;;;;;;;3.90;1.17;;;11.90;97.70;;;;;;5057570;28;20264;-77
2023/01/11 08:27:10;;;;;;;3.20;1.03;;;11.70;97.90;;;;;;5072590;28;20218;-75
2023/01/11 08:30:01;;;;;;;2.73;1.20;;;11.60;97.90;;;;;;5067082;28;20209;-77
2023/01/11 08:32:29;;;;;;;3.87;1.23;;;11.60;97.80;;;;;;5049249;28;20201;-75
2023/01/11 08:34:57;;;;;;;4.40;1.43;;;11.50;97.60;;;;;;5071242;28;20259;-75
2023/01/11 08:37:26;;;;;;;2.30;1.20;;;11.50;97.60;;;;;;5065946;28;20194;-76
2023/01/11 08:40:16;;;;;;;2.77;1.23;;;11.40;97.60;;;;;;5065051;28;20198;-78
2023/01/11 08:43:09;;;;;;;2.17;1.27;;;11.40;97.30;;;;;;5026759;28;20302;-77
2023/01/11 08:46:10;;;;;;;5.23;1.37;;;11.30;97.50;;;;;;5027526;28;20649;-77
2023/01/11 08:48:53;;;;;;;3.80;1.27;;;11.30;97.50;;;;;;5066907;28;20565;-75
2023/01/11 08:51:22;;;;;;;2.87;1.10;;;11.30;97.40;;;;;;5068092;28;20206;-76
2023/01/11 08:53:56;;;;;;;2.30;1.10;;;11.20;97.50;;;;;;5072072;28;20621;-77
2023/01/11 08:56:24;;;;;;;4.37;1.60;;;11.10;97.50;;;;;;5064954;28;20203;-76
2023/01/11 08:59:07;;;;;;;2.77;1.20;;;11.10;97.60;;;;;;5052843;28;20659;-75
2023/01/11 09:01:54;;;;;;;3.17;1.47;;;11.10;97.70;;;;;;5070828;28;20198;-75
2023/01/11 09:04:23;;;;;;;2.87;1.23;;;11.00;97.50;;;;;;5067825;28;20614;-74
2023/01/11 09:07:16;;;;;;;3.93;1.50;;;10.90;97.50;;;;;;5071805;28;20190;-77
2023/01/11 09:09:53;;;;;;;3.60;1.70;;;10.80;97.40;;;;;;5070839;28;20244;-77
2023/01/11 09:12:21;;;;;;;3.00;1.60;;;10.80;97.60;;;;;;5064777;28;20202;-76
2023/01/11 09:14:56;;;;;;;4.13;1.80;;;10.70;97.30;;;;;;5068472;28;20647;-77
2023/01/11 09:17:35;;;;;;;3.60;1.83;;;10.70;97.40;;;;;;5070599;28;20259;-79
2023/01/11 09:20:04;;;;;;;5.17;2.57;;;10.60;97.40;;;;;;5066986;28;20594;-76
2023/01/11 09:22:33;;;;;;;3.43;1.83;;;10.50;97.30;;;;;;5071172;28;20616;-74
2023/01/11 09:25:05;;;;;;;4.47;2.23;;;10.50;97.40;;;;;;5068699;28;20201;-75
2023/01/11 09:27:33;;;;;;;4.37;2.10;;;10.50;97.40;;;;;;5069671;28;20245;-77
2023/01/11 09:30:02;;;;;;;5.17;1.97;;;10.40;97.30;;;;;;5066361;28;20199;-76
2023/01/11 09:32:30;;;;;;;3.03;1.87;;;10.30;97.30;;;;;;5058499;28;20206;-75
2023/01/11 09:35:02;;;;;;;5.33;2.07;;;10.30;97.50;;;;;;5062682;28;20194;-75
2023/01/11 09:37:30;;;;;;;6.20;2.13;;;10.30;97.50;;;;;;5056888;28;20198;-75
2023/01/11 09:40:00;;;;;;;2.73;1.70;;;10.20;97.40;;;;;;5064275;28;20762;-75
2023/01/11 09:42:36;;;;;;;3.43;1.50;;;10.10;97.10;;;;;;5068709;28;20600;-75
2023/01/11 09:45:12;;;;;;;2.53;1.40;;;10.00;96.80;;;;;;5070026;28;20220;-75
2023/01/11 09:47:46;;;;;;;4.70;1.90;;;9.90;96.80;;;;;;5064923;28;20249;-76
2023/01/11 09:50:24;;;;;;;4.03;2.00;;;9.80;96.70;;;;;;5072801;28;20197;-75
2023/01/11 09:52:58;;;;;;;2.67;1.40;;;9.70;96.70;;;;;;5068323;28;20204;-75
2023/01/11 09:55:33;;;;;;;2.17;1.37;;;9.70;96.70;;;;;;5073614;28;20202;-75
2023/01/11 09:58:29;;;;;;;3.03;1.70;;;9.60;96.70;;;;;;5072802;28;20291;-76
2023/01/11 10:01:05;;;;;;;7.60;1.80;;;9.60;96.70;;;;;;5073088;28;20716;-75
2023/01/11 10:03:58;;;;;;;2.23;1.40;;;9.50;96.60;;;;;;5067190;28;20198;-75
2023/01/11 10:06:32;;;;;;;2.20;1.30;;;9.50;96.30;;;;;;5072427;28;20206;-75
2023/01/11 10:09:17;;;;;;;2.13;1.30;;;9.40;96.70;;;;;;5072626;28;20194;-75
2023/01/11 10:12:14;;;;;;;2.87;1.50;;;9.40;96.30;;;;;;5070997;28;20209;-75
2023/01/11 10:15:12;;;;;;;3.37;1.80;;;9.30;96.20;;;;;;5063920;28;20213;-76
2023/01/11 10:18:17;;;;;;;2.13;1.30;;;9.30;96.30;;;;;;5063330;28;20242;-77
2023/01/11 10:21:12;;;;;;;5.97;2.27;;;9.20;96.20;;;;;;5070409;28;20666;-77
2023/01/11 10:23:49;;;;;;;4.20;2.20;;;9.10;96.40;;;;;;5069233;28;20255;-75
2023/01/11 10:26:26;;;;;;;6.47;1.70;;;9.00;95.90;;;;;;5067320;28;20190;-75
2023/01/11 10:29:16;;;;;;;4.63;1.73;;;9.00;95.90;;;;;;5061216;28;20186;-76
2023/01/11 10:32:08;;;;;;;4.13;2.00;;;8.90;95.90;;;;;;5069106;28;20600;-76
2023/01/11 10:34:58;;;;;;;3.13;1.40;;;8.90;96.00;;;;;;5064694;28;20196;-75
2023/01/11 10:37:46;;;;;;;2.27;1.50;;;8.80;95.90;;;;;;5066354;28;20744;-76
2023/01/11 10:40:34;;;;;;;3.33;1.50;;;8.70;96.00;;;;;;5066318;28;20191;-75
2023/01/11 10:43:08;;;;;;;2.70;1.20;;;8.70;95.90;;;;;;5063851;28;20204;-76
2023/01/11 10:45:42;;;;;;;3.67;1.67;;;8.60;95.70;;;;;;5063388;28;20197;-76
2023/01/11 10:48:17;;;;;;;2.60;1.50;;;8.50;95.70;;;;;;5072116;28;20651;-77
2023/01/11 10:50:54;;;;;;;3.03;1.57;;;8.50;95.70;;;;;;5068729;28;20239;-77
2023/01/11 10:53:27;;;;;;;2.80;1.53;;;8.40;95.70;;;;;;5061918;28;20221;-74
2023/01/11 10:56:04;;;;;;;5.13;2.30;;;8.30;95.80;;;;;;5069012;28;20194;-76
2023/01/11 10:58:52;;;;;;;4.57;2.13;;;8.30;95.70;;;;;;5065896;28;20264;-75
2023/01/11 11:01:39;;;;;;;3.87;2.00;;;8.20;95.80;;;;;;5061672;28;20677;-76
2023/01/11 11:04:29;;;;;;;6.07;2.30;;;8.10;95.70;;;;;;5066414;28;20220;-75
2023/01/11 11:07:04;;;;;;;4.50;1.90;;;8.00;95.80;;;;;;5067218;28;20194;-77
2023/01/11 11:09:41;;;;;;;5.80;2.70;;;7.90;95.90;;;;;;5069463;28;20233;-76
2023/01/11 11:12:16;;;;;;;6.63;2.50;;;7.90;96.00;;;;;;5070027;28;20186;-77
2023/01/11 11:14:51;;;;;;;5.30;2.37;;;7.90;96.20;;;;;;5066132;28;20384;-79
2023/01/11 11:17:24;;;;;;;5.43;2.63;;;7.90;96.30;;;;;;5060366;28;20263;-77
2023/01/11 11:19:53;;;;;;;5.03;2.23;;;7.90;96.20;;;;;;5064932;28;20925;-77
2023/01/11 11:22:22;;;;;;;8.93;2.37;;;7.90;96.30;;;;;;5070463;28;20604;-77
2023/01/11 11:24:57;;;;;;;4.93;2.20;;;7.80;96.30;;;;;;5063061;28;20654;-78
2023/01/11 11:27:33;;;;;;;8.13;2.50;;;7.80;96.70;;;;;;5057327;28;20282;-77
2023/01/11 11:30:02;;;;;;;6.87;2.67;;;7.80;96.40;;;;;;5067607;28;20201;-78
2023/01/11 11:32:32;;;;;;;5.23;2.73;;;7.80;96.40;;;;;;5067190;28;20626;-77
2023/01/11 11:35:06;;;;;;;6.60;2.67;;;7.80;96.30;;;;;;5065513;28;20194;-77
2023/01/11 11:37:39;;;;;;;4.50;2.17;;;7.70;96.20;;;;;;5071753;28;20645;-77
2023/01/11 11:40:28;;;;;;;3.97;2.10;;;7.60;96.20;;;;;;5070363;28;20252;-77
2023/01/11 11:43:16;;;;;;;7.10;2.70;;;7.60;96.20;;;;;;5063275;28;20194;-76
2023/01/11 11:45:52;;;;;;;5.30;2.53;;;7.60;96.40;;;;;;5062026;28;20565;-76
2023/01/11 11:48:20;;;;;;;5.53;2.73;;;7.50;96.40;;;;;;5069047;28;20207;-76
2023/01/11 11:50:50;;;;;;;5.10;2.47;;;7.50;96.50;;;;;;5066770;28;20194;-76
2023/01/11 11:53:27;;;;;;;5.43;2.43;;;7.40;96.60;;;;;;5070331;28;20647;-75
2023/01/11 11:55:56;;;;;;;4.67;2.77;;;7.40;96.70;;;;;;5065755;28;20199;-76
2023/01/11 11:58:27;;;;;;;4.23;2.40;;;7.30;96.60;;;;;;5071969;28;20747;-75
2023/01/11 12:00:55;;;;;;;4.77;2.07;;;7.30;96.60;;;;;;5064838;28;20191;-74
2023/01/11 12:03:28;;;;;;;9.67;3.10;;;7.30;96.70;;;;;;5068557;28;20198;-75
2023/01/11 12:06:00;;;;;;;7.93;2.23;;;7.30;96.70;;;;;;5067172;28;20271;-77
2023/01/11 12:08:30;;;;;;;6.43;2.40;;;7.20;96.70;;;;;;5066292;28;20279;-74
2023/01/11 12:11:01;;;;;;;5.20;2.87;;;7.10;96.50;;;;;;5063499;28;20245;-77
2023/01/11 12:13:34;;;;;;;5.27;2.60;;;7.20;96.60;;;;;;5072067;28;20197;-76
2023/01/11 12:16:04;;;;;;;7.17;3.00;;;7.10;96.60;;;;;;5073571;28;20560;-78
2023/01/11 12:18:40;;;;;;;5.83;2.67;;;7.10;96.70;;;;;;5072007;28;20236;-78
2023/01/11 12:21:20;;;;;;;8.27;3.30;;;7.10;96.70;;;;;;5026209;28;20648;-77
2023/01/11 12:24:07;;;;;;;7.83;3.53;;;7.00;96.80;;;;;;5072879;28;20195;-78
2023/01/11 12:26:40;;;;;;;9.37;3.70;;;7.00;96.80;;;;;;5074568;28;20548;-78
2023/01/11 12:29:21;;;;;;;7.22;3.53;;;6.90;97.00;;;;;;5070033;28;20511;-77
2023/01/11 12:32:15;;;;;;;10.57;3.87;;;6.90;97.30;;;;;;5072609;28;20186;-77
2023/01/11 12:35:01;;;;;;;7.87;3.77;;;6.90;97.00;;;;;;5068204;28;20209;-77
2023/01/11 12:37:45;;;;;;;6.03;3.23;;;6.90;97.10;;;;;;5072776;28;20202;-77
2023/01/11 12:40:19;;;;;;;10.20;3.90;;;6.90;97.30;;;;;;5061957;28;20601;-75
2023/01/11 12:43:04;;;;;;;11.77;3.57;;;6.90;97.30;;;;;;5066702;28;20271;-75
2023/01/11 12:45:44;;;;;;;9.73;3.37;;;6.90;97.30;;;;;;5064358;28;20191;-75
2023/01/11 12:48:39;;;;;;;8.30;3.70;;;6.80;97.30;;;;;;5073575;28;20191;-76
2023/01/11 12:51:24;;;;;;;9.77;4.47;;;6.80;97.40;;;;;;5060206;28;20221;-76
2023/01/11 12:54:04;;;;;;;8.50;4.67;;;6.70;97.30;;;;;;5067447;28;20197;-77
2023/01/11 12:56:43;;;;;;;11.77;4.93;;;6.60;97.20;;;;;;5064186;28;20659;-75
2023/01/11 12:59:28;;;;;;;10.63;3.97;;;6.60;97.20;;;;;;5073392;28;20210;-76
2023/01/11 13:02:10;;;;;;;8.90;4.17;;;6.60;97.30;;;;;;5069613;28;20198;-76
2023/01/11 13:04:57;;;;;;;9.50;4.10;;;6.60;97.30;;;;;;5063825;28;20605;-78
2023/01/11 13:07:36;;;;;;;9.63;4.30;;;6.50;97.20;;;;;;5073360;28;20267;-76
2023/01/11 13:10:29;;;;;;;11.50;4.57;;;6.50;97.30;;;;;;5073268;28;20205;-76
2023/01/11 13:13:05;;;;;;;8.73;4.33;;;6.50;97.20;;;;;;5069191;28;20336;-76
2023/01/11 13:15:42;;;;;;;9.70;4.70;;;6.50;97.30;;;;;;5071904;28;20650;-78
2023/01/11 13:18:32;;;;;;;11.40;3.70;;;6.40;97.30;;;;;;5064023;28;20196;-76
2023/01/11 13:21:11;;;;;;;10.67;4.83;;;6.30;97.20;;;;;;5069752;28;20251;-76
2023/01/11 13:23:44;;;;;;;9.70;4.70;;;6.30;97.30;;;;;;5067308;28;20243;-77
2023/01/11 13:26:21;;;;;;;12.17;5.00;;;6.30;97.40;;;;;;5065189;28;20205;-76
2023/01/11 13:28:54;;;;;;;14.50;5.07;;;6.20;97.40;;;;;;5065004;28;20654;-76
2023/01/11 13:31:24;;;;;;;9.00;4.77;;;6.30;97.40;;;;;;5068127;28;20258;-75
2023/01/11 13:33:57;;;;;;;11.23;5.67;;;6.20;97.30;;;;;;5063744;28;20200;-76
2023/01/11 13:36:31;;;;;;;10.00;4.60;;;6.20;97.30;;;;;;5071938;28;20201;-75
2023/01/11 13:39:05;;;;;;;9.53;4.50;;;6.10;97.20;;;;;;5063968;28;20213;-74
2023/01/11 13:41:39;;;;;;;10.90;4.73;;;6.10;97.30;;;;;;5072586;28;20612;-74